Historyczne dane pomiarowe

Dodano dane terminowe – wersja testowa.

Dane z okresu 1951-2019

Wersja bazy: 1.34 [2019-03-16, lista zmian], aktualizacja planowana na 2019-04-15

Dane meteo z obszaru Polski uzyskane na podstawie danych udostępnionych przez Instytut Meteorologii i Gospodarki Wodnej – Państwowy Instytut Badawczy.

 

Wybierz Datę:    

       

TemperaturaWilgotnośćWiatrCiśnienieOpadyŚniegCzas trwania zjawisk
 Stacja t tx tn tng RH VA  wxwx mslp ppp RRR   cm mm wxwxwxwxwxwxwx
1994-08-14 14.9 18.5 11.5- 59.8- 3.7 5.0---- 0.0------------
1994-08-13 17.5 21.9 15.0- 72.8- 5.0 3.7---- 0.0------------
1994-08-12 17.5 21.5 15.2- 79.3- 6.7 1.0---- 3.3------------
1994-08-11 20.8 24.8 17.4- 78.8- 6.7 2.0---- 1.0------------
1994-08-10 21.1 28.5 14.5- 68.5- 3.7 2.0---- 50.0------------
1994-08-09 19.2 21.7 17.0- 90.8- 4.7 2.0---- 2.0------------
1994-08-08 20.4 23.2 17.4- 82.5- 8.0 2.0---- 27.3------------
1994-08-07 23.3 29.0 18.4- 77.0- 4.7 1.3---- 0.0------------
1994-08-06 26.5 32.5 19.0- 83.8- 3.3 2.3---- 0.0------------
1994-08-05 24.8 31.9 16.0- 86.8- 1.3 1.7---- 0.0------------
1994-08-04 22.2 29.3 15.9- 88.0- 2.0 2.0---- 0.0------------
1994-08-03 23.4 28.0 20.1- 88.8- 3.7 1.3---- 0.0------------
1994-08-02 25.2 31.0 20.7- 83.5- 4.0 4.0---- 0.0------------
1994-08-01 28.9 36.6 19.6- 70.8- 2.0 1.7---- 0.0------------
1994-07-31 28.1 35.4 19.4- 58.3- 3.0 1.0---- 0.0------------
1994-07-30 27.4 34.6 21.2- 55.0- 0.0 1.7---- 0.0------------
1994-07-29 27.4 33.8 17.3- 56.3- 0.3 1.0---- 0.0------------
1994-07-28 25.3 33.3 17.4- 59.0- 2.3 1.0---- 0.0------------
1994-07-27 26.0 32.2 19.6- 60.8- 2.7 1.0---- 0.0------------
1994-07-26 25.3 32.6 19.0- 64.0- 3.3 0.7---- 0.0------------
1994-07-25 24.9 31.5 16.1- 61.3- 2.3 1.0---- 0.0------------
1994-07-24 22.6 30.2 14.0- 70.5- 2.3 1.3---- 0.0------------
1994-07-23 22.1 29.1 12.2- 64.0- 2.7 3.0---- 0.0------------
1994-07-22 21.9 29.0 10.4- 68.0- 1.0 0.3---- 0.0------------
1994-07-21 19.4 27.0 10.3- 71.0- 0.0 1.3---- 0.0------------
1994-07-20 19.2 24.5 13.0- 61.5- 2.0 1.7---- 0.0------------
1994-07-19 18.0 22.2 16.5- 81.0- 7.7 0.7---- 0.0------------
1994-07-18 20.3 25.2 14.5- 72.0- 4.7 2.0---- 0.0------------
1994-07-17 20.2 27.4 15.9- 85.5- 7.0 2.0---- 0.0------------
1994-07-16 22.5 27.6 16.8- 68.5- 5.7 3.0---- 1.7------------
1994-07-15 22.8 29.1 15.6- 61.8- 3.3 2.7---- 0.0------------
1994-07-14 22.7 30.5 15.5- 61.0- 3.0 1.3---- 0.0------------
1994-07-13 21.6 28.1 13.6- 59.3- 4.3 3.0---- 0.0------------
1994-07-12 20.9 26.5 15.6- 75.5- 5.0 1.3---- 0.0------------
1994-07-11 20.2 26.5 14.0- 71.5- 3.7 3.3---- 0.0------------
1994-07-10 16.6 22.0 13.5- 80.8- 6.3 4.7---- 0.0------------
1994-07-09 15.4 18.0 14.5- 75.5- 7.3 3.3---- 1.0------------
1994-07-08 15.8 20.4 12.0- 59.8- 5.0 4.3---- 0.1------------
1994-07-07 16.7 23.9 14.0- 85.3- 6.7 1.3---- 5.1------------
1994-07-06 19.8 25.0 13.0- 68.0- 2.7 1.0---- 0.0------------
1994-07-05 19.9 26.6 15.3- 62.8- 5.7 3.0---- 0.0------------
1994-07-04 23.5 29.5 15.1- 45.8- 1.0 1.0---- 0.0------------
1994-07-03 20.2 27.4 13.1- 55.3- 0.7 0.7---- 0.0------------
1994-07-02 18.6 25.0 10.6- 61.0- 0.0 1.0---- 0.0------------
1994-07-01 18.2 22.2 11.4- 71.0- 2.7 1.7---- 0.0------------
1994-06-30 19.4 23.0 17.6- 90.3- 7.7 2.0---- 4.7------------
1994-06-29 24.8 31.5 18.8- 70.0- 3.0 2.0---- 0.0------------
1994-06-28 24.8 30.3 18.5- 70.8- 6.0 0.7---- 0.0------------
1994-06-27 26.8 31.1 19.8- 65.0- 1.7 1.7---- 0.0------------
1994-06-26 23.2 30.5 13.7- 55.5- 2.0 1.0---- 0.0------------
1994-06-25 18.5 25.0 8.0- 46.0- 0.0 3.0---- 0.0------------
1994-06-24 15.7 20.4 10.5- 61.0- 0.0 1.3---- 0.0------------
1994-06-23 17.6 23.9 15.6- 51.3- 1.3 3.3---- 0.0------------
1994-06-22 21.1 25.4 13.0- 58.0- 6.0 3.3---- 0.0------------
1994-06-21 15.7 21.1 9.0- 70.0- 2.0 1.3---- 0.0------------
1994-06-20 16.8 21.8 13.9- 64.0- 7.3 7.0---- 0.0------------
1994-06-19 18.2 26.0 12.9- 69.0- 5.7 1.0---- 0.0------------
1994-06-18 13.8 19.0 5.2- 68.0- 6.7 3.3---- 1.2------------
1994-06-17 10.7 13.9 8.3- 78.5- 7.0 1.3---- 0.3------------
1994-06-16 12.0 16.2 7.5- 71.0- 7.3 1.0---- 5.3------------
352.7 ms

 

Źródłem pochodzenia danych jest Instytut Meteorologii i Gospodarki Wodnej – Państwowy Instytut Badawczy. Dane Instytutu Meteorologii i Gospodarki Wodnej – Państwowego Instytutu Badawczego zostały przetworzone.

Dane źródłowe można odnaleźć na stronie https://dane.imgw.pl